sensor_id;sensor_type;location;lat;lon;timestamp;P1;durP1;ratioP1;P2;durP2;ratioP2
22024;SDS011;11176;51.448;6.650;2022-12-11T00:00:03;88.00;;;35.08;;
22024;SDS011;11176;51.448;6.650;2022-12-11T00:02:30;89.95;;;36.22;;
22024;SDS011;11176;51.448;6.650;2022-12-11T00:04:57;94.07;;;37.40;;
22024;SDS011;11176;51.448;6.650;2022-12-11T00:07:24;95.95;;;37.45;;
22024;SDS011;11176;51.448;6.650;2022-12-11T00:09:51;101.78;;;37.63;;
22024;SDS011;11176;51.448;6.650;2022-12-11T00:12:17;108.15;;;40.85;;
22024;SDS011;11176;51.448;6.650;2022-12-11T00:14:44;107.93;;;42.17;;
22024;SDS011;11176;51.448;6.650;2022-12-11T00:17:10;106.65;;;41.05;;
22024;SDS011;11176;51.448;6.650;2022-12-11T00:19:37;116.25;;;43.72;;
22024;SDS011;11176;51.448;6.650;2022-12-11T00:22:04;116.20;;;44.22;;
22024;SDS011;11176;51.448;6.650;2022-12-11T00:24:30;113.63;;;43.35;;
22024;SDS011;11176;51.448;6.650;2022-12-11T00:26:57;117.43;;;43.78;;
22024;SDS011;11176;51.448;6.650;2022-12-11T00:29:24;108.00;;;40.55;;
22024;SDS011;11176;51.448;6.650;2022-12-11T00:31:50;102.90;;;41.08;;
22024;SDS011;11176;51.448;6.650;2022-12-11T00:34:17;115.13;;;43.05;;
22024;SDS011;11176;51.448;6.650;2022-12-11T00:36:43;99.72;;;39.55;;
22024;SDS011;11176;51.448;6.650;2022-12-11T00:39:10;111.25;;;41.25;;
22024;SDS011;11176;51.448;6.650;2022-12-11T00:41:36;105.10;;;42.10;;
22024;SDS011;11176;51.448;6.650;2022-12-11T00:44:02;86.43;;;35.35;;
22024;SDS011;11176;51.448;6.650;2022-12-11T00:46:29;128.05;;;46.13;;
22024;SDS011;11176;51.448;6.650;2022-12-11T00:48:55;96.18;;;39.03;;
22024;SDS011;11176;51.448;6.650;2022-12-11T00:51:22;89.30;;;34.85;;
22024;SDS011;11176;51.448;6.650;2022-12-11T00:53:48;78.18;;;32.47;;
22024;SDS011;11176;51.448;6.650;2022-12-11T00:56:16;82.05;;;32.10;;
22024;SDS011;11176;51.448;6.650;2022-12-11T00:58:45;77.80;;;31.73;;
22024;SDS011;11176;51.448;6.650;2022-12-11T01:01:15;95.65;;;35.67;;
22024;SDS011;11176;51.448;6.650;2022-12-11T01:03:45;88.75;;;36.97;;
22024;SDS011;11176;51.448;6.650;2022-12-11T01:06:15;74.68;;;30.88;;
22024;SDS011;11176;51.448;6.650;2022-12-11T01:08:43;77.70;;;31.00;;
22024;SDS011;11176;51.448;6.650;2022-12-11T01:11:11;78.88;;;33.05;;
22024;SDS011;11176;51.448;6.650;2022-12-11T01:13:40;75.43;;;31.98;;
22024;SDS011;11176;51.448;6.650;2022-12-11T01:16:08;70.32;;;30.33;;
22024;SDS011;11176;51.448;6.650;2022-12-11T01:18:37;73.88;;;31.10;;
22024;SDS011;11176;51.448;6.650;2022-12-11T01:21:04;79.32;;;32.67;;
22024;SDS011;11176;51.448;6.650;2022-12-11T01:23:32;91.18;;;35.25;;
22024;SDS011;11176;51.448;6.650;2022-12-11T01:26:08;81.65;;;34.05;;
22024;SDS011;11176;51.448;6.650;2022-12-11T01:28:36;97.72;;;37.22;;
22024;SDS011;11176;51.448;6.650;2022-12-11T01:31:21;77.07;;;33.17;;
22024;SDS011;11176;51.448;6.650;2022-12-11T01:33:48;77.05;;;33.80;;
22024;SDS011;11176;51.448;6.650;2022-12-11T01:36:16;69.32;;;30.80;;
22024;SDS011;11176;51.448;6.650;2022-12-11T01:38:44;72.05;;;30.52;;
22024;SDS011;11176;51.448;6.650;2022-12-11T01:41:12;62.65;;;28.35;;
22024;SDS011;11176;51.448;6.650;2022-12-11T01:43:54;72.43;;;30.10;;
22024;SDS011;11176;51.448;6.650;2022-12-11T01:46:22;69.55;;;29.52;;
22024;SDS011;11176;51.448;6.650;2022-12-11T01:48:49;62.97;;;28.38;;
22024;SDS011;11176;51.448;6.650;2022-12-11T01:51:15;62.80;;;28.33;;
22024;SDS011;11176;51.448;6.650;2022-12-11T01:53:44;61.70;;;27.10;;
22024;SDS011;11176;51.448;6.650;2022-12-11T01:56:15;62.83;;;28.38;;
22024;SDS011;11176;51.448;6.650;2022-12-11T01:58:46;64.05;;;28.55;;
22024;SDS011;11176;51.448;6.650;2022-12-11T02:01:19;67.20;;;28.38;;
22024;SDS011;11176;51.448;6.650;2022-12-11T02:03:56;66.18;;;27.75;;
22024;SDS011;11176;51.448;6.650;2022-12-11T02:06:29;64.05;;;28.75;;
22024;SDS011;11176;51.448;6.650;2022-12-11T02:08:59;66.97;;;28.52;;
22024;SDS011;11176;51.448;6.650;2022-12-11T02:11:29;60.08;;;26.20;;
22024;SDS011;11176;51.448;6.650;2022-12-11T02:14:12;68.25;;;27.55;;
22024;SDS011;11176;51.448;6.650;2022-12-11T02:16:55;62.55;;;27.95;;
22024;SDS011;11176;51.448;6.650;2022-12-11T02:22:07;62.42;;;27.90;;
22024;SDS011;11176;51.448;6.650;2022-12-11T02:27:49;66.35;;;28.73;;
22024;SDS011;11176;51.448;6.650;2022-12-11T02:30:12;71.60;;;29.52;;
22024;SDS011;11176;51.448;6.650;2022-12-11T02:32:48;64.03;;;28.67;;
22024;SDS011;11176;51.448;6.650;2022-12-11T02:35:25;65.53;;;28.27;;
22024;SDS011;11176;51.448;6.650;2022-12-11T02:37:58;73.80;;;29.42;;
22024;SDS011;11176;51.448;6.650;2022-12-11T02:40:30;72.17;;;30.40;;
22024;SDS011;11176;51.448;6.650;2022-12-11T02:43:00;77.90;;;31.52;;
22024;SDS011;11176;51.448;6.650;2022-12-11T02:45:29;71.53;;;30.25;;
22024;SDS011;11176;51.448;6.650;2022-12-11T02:47:57;70.63;;;30.77;;
22024;SDS011;11176;51.448;6.650;2022-12-11T02:50:28;68.10;;;28.65;;
22024;SDS011;11176;51.448;6.650;2022-12-11T02:52:55;71.57;;;30.85;;
22024;SDS011;11176;51.448;6.650;2022-12-11T02:55:25;74.47;;;30.65;;
22024;SDS011;11176;51.448;6.650;2022-12-11T02:58:01;65.35;;;28.35;;
22024;SDS011;11176;51.448;6.650;2022-12-11T03:00:33;71.03;;;29.67;;
22024;SDS011;11176;51.448;6.650;2022-12-11T03:03:00;72.28;;;29.92;;
22024;SDS011;11176;51.448;6.650;2022-12-11T03:05:27;71.85;;;31.13;;
22024;SDS011;11176;51.448;6.650;2022-12-11T03:07:54;74.60;;;30.40;;
22024;SDS011;11176;51.448;6.650;2022-12-11T03:10:21;73.50;;;31.52;;
22024;SDS011;11176;51.448;6.650;2022-12-11T03:12:49;66.57;;;29.27;;
22024;SDS011;11176;51.448;6.650;2022-12-11T03:15:19;67.65;;;29.17;;
22024;SDS011;11176;51.448;6.650;2022-12-11T03:20:43;70.47;;;30.63;;
22024;SDS011;11176;51.448;6.650;2022-12-11T03:23:32;68.35;;;31.33;;
22024;SDS011;11176;51.448;6.650;2022-12-11T03:26:06;71.00;;;31.27;;
22024;SDS011;11176;51.448;6.650;2022-12-11T03:31:10;73.67;;;32.77;;
22024;SDS011;11176;51.448;6.650;2022-12-11T03:33:40;79.63;;;32.58;;
22024;SDS011;11176;51.448;6.650;2022-12-11T03:36:16;74.43;;;30.92;;
22024;SDS011;11176;51.448;6.650;2022-12-11T03:39:06;69.03;;;30.25;;
22024;SDS011;11176;51.448;6.650;2022-12-11T03:41:38;73.32;;;31.23;;
22024;SDS011;11176;51.448;6.650;2022-12-11T03:44:06;68.53;;;29.88;;
22024;SDS011;11176;51.448;6.650;2022-12-11T03:46:35;69.57;;;31.23;;
22024;SDS011;11176;51.448;6.650;2022-12-11T03:49:06;72.03;;;30.90;;
22024;SDS011;11176;51.448;6.650;2022-12-11T03:51:40;70.63;;;30.90;;
22024;SDS011;11176;51.448;6.650;2022-12-11T03:54:09;69.65;;;30.55;;
22024;SDS011;11176;51.448;6.650;2022-12-11T03:56:36;75.20;;;32.67;;
22024;SDS011;11176;51.448;6.650;2022-12-11T03:59:04;67.32;;;29.75;;
22024;SDS011;11176;51.448;6.650;2022-12-11T04:01:31;66.07;;;30.55;;
22024;SDS011;11176;51.448;6.650;2022-12-11T04:03:57;75.20;;;31.63;;
22024;SDS011;11176;51.448;6.650;2022-12-11T04:06:24;70.82;;;30.88;;
22024;SDS011;11176;51.448;6.650;2022-12-11T04:08:50;73.50;;;31.58;;
22024;SDS011;11176;51.448;6.650;2022-12-11T04:11:17;65.93;;;30.20;;
22024;SDS011;11176;51.448;6.650;2022-12-11T04:16:47;65.80;;;30.05;;
22024;SDS011;11176;51.448;6.650;2022-12-11T04:19:13;69.47;;;29.70;;
22024;SDS011;11176;51.448;6.650;2022-12-11T04:21:59;60.60;;;28.83;;
22024;SDS011;11176;51.448;6.650;2022-12-11T04:24:40;56.28;;;27.20;;
22024;SDS011;11176;51.448;6.650;2022-12-11T04:27:07;63.80;;;29.27;;
22024;SDS011;11176;51.448;6.650;2022-12-11T04:29:33;54.75;;;27.42;;
22024;SDS011;11176;51.448;6.650;2022-12-11T04:31:59;55.35;;;27.25;;
22024;SDS011;11176;51.448;6.650;2022-12-11T04:34:26;55.33;;;26.75;;
22024;SDS011;11176;51.448;6.650;2022-12-11T04:36:52;51.00;;;26.65;;
22024;SDS011;11176;51.448;6.650;2022-12-11T04:39:19;49.75;;;26.38;;
22024;SDS011;11176;51.448;6.650;2022-12-11T04:41:45;49.28;;;26.08;;
22024;SDS011;11176;51.448;6.650;2022-12-11T04:44:12;54.70;;;25.40;;
22024;SDS011;11176;51.448;6.650;2022-12-11T04:46:38;49.80;;;26.45;;
22024;SDS011;11176;51.448;6.650;2022-12-11T04:49:05;52.28;;;26.60;;
22024;SDS011;11176;51.448;6.650;2022-12-11T04:51:31;55.33;;;27.17;;
22024;SDS011;11176;51.448;6.650;2022-12-11T04:53:58;55.30;;;27.90;;
22024;SDS011;11176;51.448;6.650;2022-12-11T04:56:24;53.67;;;25.77;;
22024;SDS011;11176;51.448;6.650;2022-12-11T04:58:51;50.05;;;26.27;;
22024;SDS011;11176;51.448;6.650;2022-12-11T05:01:19;46.05;;;23.85;;
22024;SDS011;11176;51.448;6.650;2022-12-11T05:03:47;49.65;;;25.35;;
22024;SDS011;11176;51.448;6.650;2022-12-11T05:06:14;54.58;;;26.52;;
22024;SDS011;11176;51.448;6.650;2022-12-11T05:08:41;55.88;;;25.58;;
22024;SDS011;11176;51.448;6.650;2022-12-11T05:11:09;48.15;;;26.33;;
22024;SDS011;11176;51.448;6.650;2022-12-11T05:13:37;47.08;;;25.73;;
22024;SDS011;11176;51.448;6.650;2022-12-11T05:16:05;45.83;;;23.75;;
22024;SDS011;11176;51.448;6.650;2022-12-11T05:18:34;48.50;;;26.13;;
22024;SDS011;11176;51.448;6.650;2022-12-11T05:21:02;54.28;;;26.67;;
22024;SDS011;11176;51.448;6.650;2022-12-11T05:23:30;51.05;;;27.73;;
22024;SDS011;11176;51.448;6.650;2022-12-11T05:25:58;52.65;;;26.10;;
22024;SDS011;11176;51.448;6.650;2022-12-11T05:28:28;45.03;;;25.08;;
22024;SDS011;11176;51.448;6.650;2022-12-11T05:30:57;49.42;;;25.38;;
22024;SDS011;11176;51.448;6.650;2022-12-11T05:33:25;54.15;;;26.92;;
22024;SDS011;11176;51.448;6.650;2022-12-11T05:35:52;47.42;;;26.55;;
22024;SDS011;11176;51.448;6.650;2022-12-11T05:38:18;50.30;;;26.73;;
22024;SDS011;11176;51.448;6.650;2022-12-11T05:40:54;49.28;;;25.77;;
22024;SDS011;11176;51.448;6.650;2022-12-11T05:43:22;54.30;;;26.02;;
22024;SDS011;11176;51.448;6.650;2022-12-11T05:45:48;45.72;;;25.05;;
22024;SDS011;11176;51.448;6.650;2022-12-11T05:48:15;51.08;;;27.15;;
22024;SDS011;11176;51.448;6.650;2022-12-11T05:50:41;52.42;;;26.25;;
22024;SDS011;11176;51.448;6.650;2022-12-11T05:53:08;52.90;;;26.27;;
22024;SDS011;11176;51.448;6.650;2022-12-11T05:55:34;47.88;;;26.52;;
22024;SDS011;11176;51.448;6.650;2022-12-11T05:58:01;48.17;;;25.52;;
22024;SDS011;11176;51.448;6.650;2022-12-11T06:00:27;48.67;;;25.52;;
22024;SDS011;11176;51.448;6.650;2022-12-11T06:05:27;47.67;;;25.88;;
22024;SDS011;11176;51.448;6.650;2022-12-11T06:07:54;47.95;;;26.17;;
22024;SDS011;11176;51.448;6.650;2022-12-11T06:10:20;51.35;;;27.70;;
22024;SDS011;11176;51.448;6.650;2022-12-11T06:12:46;50.30;;;26.38;;
22024;SDS011;11176;51.448;6.650;2022-12-11T06:15:13;51.28;;;26.02;;
22024;SDS011;11176;51.448;6.650;2022-12-11T06:17:39;51.85;;;26.80;;
22024;SDS011;11176;51.448;6.650;2022-12-11T06:20:06;55.70;;;28.13;;
22024;SDS011;11176;51.448;6.650;2022-12-11T06:22:33;50.22;;;27.30;;
22024;SDS011;11176;51.448;6.650;2022-12-11T06:25:00;50.83;;;27.35;;
22024;SDS011;11176;51.448;6.650;2022-12-11T06:27:26;56.90;;;27.40;;
22024;SDS011;11176;51.448;6.650;2022-12-11T06:29:53;52.22;;;28.38;;
22024;SDS011;11176;51.448;6.650;2022-12-11T06:32:19;54.15;;;27.08;;
22024;SDS011;11176;51.448;6.650;2022-12-11T06:34:46;51.17;;;26.63;;
22024;SDS011;11176;51.448;6.650;2022-12-11T06:37:13;51.28;;;27.08;;
22024;SDS011;11176;51.448;6.650;2022-12-11T06:39:39;55.72;;;27.05;;
22024;SDS011;11176;51.448;6.650;2022-12-11T06:42:06;49.83;;;26.88;;
22024;SDS011;11176;51.448;6.650;2022-12-11T06:44:33;53.58;;;27.00;;
22024;SDS011;11176;51.448;6.650;2022-12-11T06:46:59;47.03;;;25.63;;
22024;SDS011;11176;51.448;6.650;2022-12-11T06:49:26;51.00;;;26.88;;
22024;SDS011;11176;51.448;6.650;2022-12-11T06:51:52;50.38;;;26.08;;
22024;SDS011;11176;51.448;6.650;2022-12-11T06:54:18;46.38;;;26.30;;
22024;SDS011;11176;51.448;6.650;2022-12-11T06:56:45;51.45;;;25.85;;
22024;SDS011;11176;51.448;6.650;2022-12-11T06:59:12;48.25;;;25.67;;
22024;SDS011;11176;51.448;6.650;2022-12-11T07:01:38;47.95;;;26.48;;
22024;SDS011;11176;51.448;6.650;2022-12-11T07:04:06;51.67;;;26.83;;
22024;SDS011;11176;51.448;6.650;2022-12-11T07:06:34;48.00;;;25.15;;
22024;SDS011;11176;51.448;6.650;2022-12-11T07:09:02;50.63;;;26.20;;
22024;SDS011;11176;51.448;6.650;2022-12-11T07:11:30;45.33;;;25.60;;
22024;SDS011;11176;51.448;6.650;2022-12-11T07:14:00;47.60;;;25.02;;
22024;SDS011;11176;51.448;6.650;2022-12-11T07:16:26;45.47;;;25.23;;
22024;SDS011;11176;51.448;6.650;2022-12-11T07:18:53;47.55;;;23.77;;
22024;SDS011;11176;51.448;6.650;2022-12-11T07:21:19;47.72;;;25.38;;
22024;SDS011;11176;51.448;6.650;2022-12-11T07:23:46;48.63;;;25.17;;
22024;SDS011;11176;51.448;6.650;2022-12-11T07:26:14;52.38;;;25.90;;
22024;SDS011;11176;51.448;6.650;2022-12-11T07:28:43;47.83;;;25.65;;
22024;SDS011;11176;51.448;6.650;2022-12-11T07:31:12;47.03;;;25.08;;
22024;SDS011;11176;51.448;6.650;2022-12-11T07:33:40;46.67;;;24.85;;
22024;SDS011;11176;51.448;6.650;2022-12-11T07:36:08;44.17;;;24.50;;
22024;SDS011;11176;51.448;6.650;2022-12-11T07:38:36;44.97;;;24.83;;
22024;SDS011;11176;51.448;6.650;2022-12-11T07:41:03;45.67;;;23.50;;
22024;SDS011;11176;51.448;6.650;2022-12-11T07:43:32;44.63;;;23.77;;
22024;SDS011;11176;51.448;6.650;2022-12-11T07:46:03;44.95;;;24.73;;
22024;SDS011;11176;51.448;6.650;2022-12-11T07:48:31;44.30;;;25.02;;
22024;SDS011;11176;51.448;6.650;2022-12-11T07:51:34;45.30;;;24.35;;
22024;SDS011;11176;51.448;6.650;2022-12-11T07:53:57;44.25;;;24.00;;
22024;SDS011;11176;51.448;6.650;2022-12-11T07:56:27;45.05;;;24.33;;
22024;SDS011;11176;51.448;6.650;2022-12-11T07:58:54;50.63;;;24.45;;
22024;SDS011;11176;51.448;6.650;2022-12-11T08:01:22;47.67;;;26.60;;
22024;SDS011;11176;51.448;6.650;2022-12-11T08:03:51;45.15;;;24.58;;
22024;SDS011;11176;51.448;6.650;2022-12-11T08:06:18;45.78;;;24.23;;
22024;SDS011;11176;51.448;6.650;2022-12-11T08:08:49;48.13;;;24.77;;
22024;SDS011;11176;51.448;6.650;2022-12-11T08:11:15;41.85;;;22.35;;
22024;SDS011;11176;51.448;6.650;2022-12-11T08:13:42;44.38;;;25.52;;
22024;SDS011;11176;51.448;6.650;2022-12-11T08:16:10;44.67;;;24.48;;
22024;SDS011;11176;51.448;6.650;2022-12-11T08:18:39;42.05;;;23.50;;
22024;SDS011;11176;51.448;6.650;2022-12-11T08:21:07;43.92;;;23.58;;
22024;SDS011;11176;51.448;6.650;2022-12-11T08:23:35;59.95;;;32.72;;
22024;SDS011;11176;51.448;6.650;2022-12-11T08:26:03;42.05;;;24.50;;
22024;SDS011;11176;51.448;6.650;2022-12-11T08:28:30;40.50;;;22.17;;
22024;SDS011;11176;51.448;6.650;2022-12-11T08:30:57;39.67;;;24.30;;
22024;SDS011;11176;51.448;6.650;2022-12-11T08:33:25;65.82;;;35.33;;
22024;SDS011;11176;51.448;6.650;2022-12-11T08:35:51;59.35;;;33.38;;
22024;SDS011;11176;51.448;6.650;2022-12-11T08:38:18;48.55;;;26.15;;
22024;SDS011;11176;51.448;6.650;2022-12-11T08:40:50;44.42;;;23.70;;
22024;SDS011;11176;51.448;6.650;2022-12-11T08:43:17;37.47;;;21.95;;
22024;SDS011;11176;51.448;6.650;2022-12-11T08:45:43;39.63;;;22.83;;
22024;SDS011;11176;51.448;6.650;2022-12-11T08:48:11;42.70;;;23.30;;
22024;SDS011;11176;51.448;6.650;2022-12-11T08:50:38;40.83;;;24.67;;
22024;SDS011;11176;51.448;6.650;2022-12-11T08:53:04;48.28;;;27.75;;
22024;SDS011;11176;51.448;6.650;2022-12-11T08:55:31;40.17;;;21.48;;
22024;SDS011;11176;51.448;6.650;2022-12-11T08:57:58;36.67;;;21.30;;
22024;SDS011;11176;51.448;6.650;2022-12-11T09:00:26;67.43;;;32.53;;
22024;SDS011;11176;51.448;6.650;2022-12-11T09:02:52;63.13;;;33.15;;
22024;SDS011;11176;51.448;6.650;2022-12-11T09:05:19;44.88;;;24.42;;
22024;SDS011;11176;51.448;6.650;2022-12-11T09:07:45;45.65;;;26.42;;
22024;SDS011;11176;51.448;6.650;2022-12-11T09:10:12;38.55;;;23.15;;
22024;SDS011;11176;51.448;6.650;2022-12-11T09:12:38;33.88;;;19.88;;
22024;SDS011;11176;51.448;6.650;2022-12-11T09:15:05;34.60;;;20.65;;
22024;SDS011;11176;51.448;6.650;2022-12-11T09:17:32;31.98;;;20.02;;
22024;SDS011;11176;51.448;6.650;2022-12-11T09:19:59;32.20;;;19.55;;
22024;SDS011;11176;51.448;6.650;2022-12-11T09:22:26;34.40;;;19.35;;
22024;SDS011;11176;51.448;6.650;2022-12-11T09:24:53;32.80;;;19.58;;
22024;SDS011;11176;51.448;6.650;2022-12-11T09:27:19;30.70;;;18.92;;
22024;SDS011;11176;51.448;6.650;2022-12-11T09:29:46;30.45;;;18.33;;
22024;SDS011;11176;51.448;6.650;2022-12-11T09:32:13;31.98;;;18.98;;
22024;SDS011;11176;51.448;6.650;2022-12-11T09:34:39;29.35;;;17.00;;
22024;SDS011;11176;51.448;6.650;2022-12-11T09:37:06;32.88;;;18.33;;
22024;SDS011;11176;51.448;6.650;2022-12-11T09:39:32;28.80;;;17.20;;
22024;SDS011;11176;51.448;6.650;2022-12-11T09:44:50;30.52;;;18.77;;
22024;SDS011;11176;51.448;6.650;2022-12-11T09:49:52;26.30;;;16.30;;
22024;SDS011;11176;51.448;6.650;2022-12-11T09:53:10;28.17;;;16.33;;
22024;SDS011;11176;51.448;6.650;2022-12-11T09:55:23;26.98;;;15.43;;
22024;SDS011;11176;51.448;6.650;2022-12-11T09:58:03;28.85;;;15.95;;
22024;SDS011;11176;51.448;6.650;2022-12-11T10:00:40;24.50;;;15.68;;
22024;SDS011;11176;51.448;6.650;2022-12-11T10:06:30;24.73;;;14.52;;
22024;SDS011;11176;51.448;6.650;2022-12-11T10:14:42;26.02;;;14.88;;
22024;SDS011;11176;51.448;6.650;2022-12-11T10:17:31;24.77;;;14.13;;
22024;SDS011;11176;51.448;6.650;2022-12-11T10:20:02;22.45;;;13.50;;
22024;SDS011;11176;51.448;6.650;2022-12-11T10:22:52;23.17;;;14.38;;
22024;SDS011;11176;51.448;6.650;2022-12-11T10:25:25;19.58;;;12.73;;
22024;SDS011;11176;51.448;6.650;2022-12-11T10:27:54;24.02;;;14.20;;
22024;SDS011;11176;51.448;6.650;2022-12-11T10:30:24;22.20;;;13.73;;
22024;SDS011;11176;51.448;6.650;2022-12-11T10:33:10;25.08;;;14.35;;
22024;SDS011;11176;51.448;6.650;2022-12-11T10:35:47;21.98;;;14.38;;
22024;SDS011;11176;51.448;6.650;2022-12-11T10:38:26;24.63;;;15.00;;
22024;SDS011;11176;51.448;6.650;2022-12-11T10:41:03;28.60;;;16.15;;
22024;SDS011;11176;51.448;6.650;2022-12-11T10:43:35;22.90;;;15.05;;
22024;SDS011;11176;51.448;6.650;2022-12-11T10:46:05;26.13;;;15.93;;
22024;SDS011;11176;51.448;6.650;2022-12-11T10:48:48;23.67;;;15.23;;
22024;SDS011;11176;51.448;6.650;2022-12-11T10:51:15;25.80;;;16.42;;
22024;SDS011;11176;51.448;6.650;2022-12-11T10:53:42;33.92;;;23.55;;
22024;SDS011;11176;51.448;6.650;2022-12-11T10:56:14;30.75;;;16.42;;
22024;SDS011;11176;51.448;6.650;2022-12-11T10:58:47;27.70;;;16.35;;
22024;SDS011;11176;51.448;6.650;2022-12-11T11:01:17;26.65;;;15.85;;
22024;SDS011;11176;51.448;6.650;2022-12-11T11:04:01;28.95;;;16.75;;
22024;SDS011;11176;51.448;6.650;2022-12-11T11:06:31;25.38;;;15.80;;
22024;SDS011;11176;51.448;6.650;2022-12-11T11:08:59;26.00;;;16.40;;
22024;SDS011;11176;51.448;6.650;2022-12-11T11:11:28;25.30;;;15.85;;
22024;SDS011;11176;51.448;6.650;2022-12-11T11:14:09;27.17;;;15.98;;
22024;SDS011;11176;51.448;6.650;2022-12-11T11:16:39;24.55;;;14.98;;
22024;SDS011;11176;51.448;6.650;2022-12-11T11:19:13;31.10;;;18.50;;
22024;SDS011;11176;51.448;6.650;2022-12-11T11:21:47;26.40;;;16.45;;
22024;SDS011;11176;51.448;6.650;2022-12-11T11:24:36;23.48;;;15.45;;
22024;SDS011;11176;51.448;6.650;2022-12-11T11:27:11;28.77;;;16.77;;
22024;SDS011;11176;51.448;6.650;2022-12-11T11:29:47;26.50;;;17.27;;
22024;SDS011;11176;51.448;6.650;2022-12-11T11:32:21;29.33;;;16.50;;
22024;SDS011;11176;51.448;6.650;2022-12-11T11:34:53;31.15;;;18.95;;
22024;SDS011;11176;51.448;6.650;2022-12-11T11:37:39;25.63;;;16.25;;
22024;SDS011;11176;51.448;6.650;2022-12-11T11:40:15;25.25;;;16.60;;
22024;SDS011;11176;51.448;6.650;2022-12-11T11:45:51;26.95;;;16.45;;
22024;SDS011;11176;51.448;6.650;2022-12-11T11:48:27;27.90;;;16.60;;
22024;SDS011;11176;51.448;6.650;2022-12-11T11:51:20;27.33;;;16.48;;
22024;SDS011;11176;51.448;6.650;2022-12-11T11:53:53;29.13;;;17.45;;
22024;SDS011;11176;51.448;6.650;2022-12-11T11:56:27;27.15;;;16.67;;
22024;SDS011;11176;51.448;6.650;2022-12-11T11:59:02;26.30;;;16.77;;
22024;SDS011;11176;51.448;6.650;2022-12-11T12:01:31;26.67;;;16.73;;
22024;SDS011;11176;51.448;6.650;2022-12-11T12:03:57;29.52;;;18.02;;
22024;SDS011;11176;51.448;6.650;2022-12-11T12:20:45;25.83;;;15.73;;
22024;SDS011;11176;51.448;6.650;2022-12-11T12:23:42;25.55;;;15.70;;
22024;SDS011;11176;51.448;6.650;2022-12-11T12:26:33;24.48;;;14.73;;
22024;SDS011;11176;51.448;6.650;2022-12-11T12:29:05;23.35;;;14.43;;
22024;SDS011;11176;51.448;6.650;2022-12-11T12:42:36;23.65;;;15.77;;
22024;SDS011;11176;51.448;6.650;2022-12-11T12:45:24;23.08;;;15.80;;
22024;SDS011;11176;51.448;6.650;2022-12-11T12:47:51;22.67;;;14.80;;
22024;SDS011;11176;51.448;6.650;2022-12-11T12:50:19;22.98;;;14.43;;
22024;SDS011;11176;51.448;6.650;2022-12-11T12:52:49;23.95;;;15.35;;
22024;SDS011;11176;51.448;6.650;2022-12-11T12:55:20;26.17;;;16.73;;
22024;SDS011;11176;51.448;6.650;2022-12-11T12:57:53;24.33;;;16.73;;
22024;SDS011;11176;51.448;6.650;2022-12-11T13:02:51;28.15;;;17.52;;
22024;SDS011;11176;51.448;6.650;2022-12-11T13:05:25;27.30;;;18.30;;
22024;SDS011;11176;51.448;6.650;2022-12-11T13:10:29;27.67;;;18.13;;
22024;SDS011;11176;51.448;6.650;2022-12-11T13:13:04;28.88;;;18.17;;
22024;SDS011;11176;51.448;6.650;2022-12-11T13:15:50;26.45;;;18.20;;
22024;SDS011;11176;51.448;6.650;2022-12-11T13:18:36;31.58;;;19.33;;
22024;SDS011;11176;51.448;6.650;2022-12-11T13:21:24;28.80;;;18.05;;
22024;SDS011;11176;51.448;6.650;2022-12-11T13:23:55;30.60;;;20.00;;
22024;SDS011;11176;51.448;6.650;2022-12-11T13:26:37;28.25;;;18.13;;
22024;SDS011;11176;51.448;6.650;2022-12-11T13:29:05;31.58;;;17.90;;
22024;SDS011;11176;51.448;6.650;2022-12-11T13:31:35;24.13;;;15.05;;
22024;SDS011;11176;51.448;6.650;2022-12-11T13:34:07;25.23;;;15.88;;
22024;SDS011;11176;51.448;6.650;2022-12-11T13:36:44;25.35;;;15.40;;
22024;SDS011;11176;51.448;6.650;2022-12-11T13:39:15;29.10;;;17.08;;
22024;SDS011;11176;51.448;6.650;2022-12-11T13:41:47;26.80;;;15.75;;
22024;SDS011;11176;51.448;6.650;2022-12-11T13:44:22;34.60;;;19.75;;
22024;SDS011;11176;51.448;6.650;2022-12-11T13:46:51;29.63;;;18.13;;
22024;SDS011;11176;51.448;6.650;2022-12-11T13:49:24;34.65;;;18.38;;
22024;SDS011;11176;51.448;6.650;2022-12-11T13:51:55;26.48;;;16.40;;
22024;SDS011;11176;51.448;6.650;2022-12-11T13:54:23;24.10;;;15.25;;
22024;SDS011;11176;51.448;6.650;2022-12-11T13:56:52;25.15;;;15.63;;
22024;SDS011;11176;51.448;6.650;2022-12-11T13:59:29;54.17;;;24.00;;
22024;SDS011;11176;51.448;6.650;2022-12-11T14:01:59;30.23;;;17.80;;
22024;SDS011;11176;51.448;6.650;2022-12-11T14:04:29;27.02;;;15.43;;
22024;SDS011;11176;51.448;6.650;2022-12-11T14:06:58;46.78;;;25.33;;
22024;SDS011;11176;51.448;6.650;2022-12-11T14:09:26;24.13;;;14.63;;
22024;SDS011;11176;51.448;6.650;2022-12-11T14:11:53;31.17;;;18.92;;
22024;SDS011;11176;51.448;6.650;2022-12-11T14:14:24;25.45;;;16.13;;
22024;SDS011;11176;51.448;6.650;2022-12-11T14:16:56;25.38;;;15.80;;
22024;SDS011;11176;51.448;6.650;2022-12-11T14:19:24;25.92;;;14.85;;
22024;SDS011;11176;51.448;6.650;2022-12-11T14:21:54;25.48;;;16.17;;
22024;SDS011;11176;51.448;6.650;2022-12-11T14:24:21;27.60;;;17.33;;
22024;SDS011;11176;51.448;6.650;2022-12-11T14:26:48;23.75;;;15.43;;
22024;SDS011;11176;51.448;6.650;2022-12-11T14:29:23;27.52;;;16.75;;
22024;SDS011;11176;51.448;6.650;2022-12-11T14:31:51;25.08;;;15.60;;
22024;SDS011;11176;51.448;6.650;2022-12-11T14:34:21;27.45;;;15.27;;
22024;SDS011;11176;51.448;6.650;2022-12-11T14:36:58;26.40;;;15.95;;
22024;SDS011;11176;51.448;6.650;2022-12-11T14:39:32;24.08;;;16.05;;
22024;SDS011;11176;51.448;6.650;2022-12-11T14:42:05;22.17;;;14.93;;
22024;SDS011;11176;51.448;6.650;2022-12-11T14:44:50;28.85;;;17.33;;
22024;SDS011;11176;51.448;6.650;2022-12-11T14:47:21;29.25;;;16.25;;
22024;SDS011;11176;51.448;6.650;2022-12-11T14:49:54;26.30;;;15.80;;
22024;SDS011;11176;51.448;6.650;2022-12-11T14:52:41;28.50;;;16.98;;
22024;SDS011;11176;51.448;6.650;2022-12-11T14:55:17;27.45;;;15.95;;
22024;SDS011;11176;51.448;6.650;2022-12-11T14:57:48;24.17;;;15.25;;
22024;SDS011;11176;51.448;6.650;2022-12-11T15:03:04;29.83;;;17.40;;
22024;SDS011;11176;51.448;6.650;2022-12-11T15:05:47;29.08;;;17.25;;
22024;SDS011;11176;51.448;6.650;2022-12-11T15:08:24;27.77;;;16.08;;
22024;SDS011;11176;51.448;6.650;2022-12-11T15:10:59;27.13;;;15.68;;
22024;SDS011;11176;51.448;6.650;2022-12-11T15:15:59;27.52;;;16.50;;
22024;SDS011;11176;51.448;6.650;2022-12-11T15:18:28;24.75;;;15.88;;
22024;SDS011;11176;51.448;6.650;2022-12-11T15:20:58;26.15;;;16.63;;
22024;SDS011;11176;51.448;6.650;2022-12-11T15:23:32;29.38;;;17.83;;
22024;SDS011;11176;51.448;6.650;2022-12-11T15:26:11;26.05;;;15.82;;
22024;SDS011;11176;51.448;6.650;2022-12-11T15:28:38;25.35;;;16.40;;
22024;SDS011;11176;51.448;6.650;2022-12-11T15:31:06;27.38;;;16.85;;
22024;SDS011;11176;51.448;6.650;2022-12-11T15:33:48;27.80;;;16.38;;
22024;SDS011;11176;51.448;6.650;2022-12-11T15:36:20;30.13;;;17.88;;
22024;SDS011;11176;51.448;6.650;2022-12-11T15:38:49;29.95;;;17.50;;
22024;SDS011;11176;51.448;6.650;2022-12-11T15:41:17;26.95;;;16.73;;
22024;SDS011;11176;51.448;6.650;2022-12-11T15:43:46;31.45;;;18.75;;
22024;SDS011;11176;51.448;6.650;2022-12-11T15:46:13;28.05;;;17.50;;
22024;SDS011;11176;51.448;6.650;2022-12-11T15:48:39;25.38;;;15.15;;